This is the latest recevied weather packets stored in our database for station/object S54Z-11. If no packets are shown the sender has not sent any weather packets the latest 10 day(s).
| Time | Temp. | Humidity | Pressure | Rain* | Wind** | Luminosity | Snow |
|---|---|---|---|---|---|---|---|
| 1777446574 | 8.33° C | 75% | 1024.2 hPa | - | - | - | - |
| 1777445674 | 8.33° C | 71% | 1024 hPa | - | - | - | - |
| 1777444772 | 8.33° C | 69% | 1023.9 hPa | - | - | - | - |
| 1777443875 | 8.33° C | 72% | 1023.8 hPa | - | - | - | - |
| 1777442972 | 8.89° C | 81% | 1023.6 hPa | - | - | - | - |
| 1777442072 | 8.89° C | 85% | 1023.5 hPa | - | - | - | - |
| 1777441172 | 8.89° C | 84% | 1023.3 hPa | - | - | - | - |
| 1777440274 | 8.89° C | 79% | 1023.1 hPa | - | - | - | - |
| 1777439374 | 8.89° C | 95% | 1023.2 hPa | - | - | - | - |
| 1777438472 | 8.89° C | 86% | 1023 hPa | - | - | - | - |
| 1777437574 | 8.89° C | 94% | 1022.8 hPa | - | - | - | - |
| 1777436671 | 8.89° C | 100% | 1022.8 hPa | - | - | - | - |
| 1777435771 | 8.89° C | 100% | 1022.6 hPa | - | - | - | - |
| 1777432174 | 8.89° C | 100% | 1022.1 hPa | - | - | - | - |
| 1777425871 | 9.44° C | 100% | 1021.9 hPa | - | - | - | - |
| 1777415070 | 10° C | 100% | 1022 hPa | - | - | - | - |
| 1777413270 | 11.11° C | 86% | 1022 hPa | - | - | - | - |
| 1777410567 | 12.78° C | 65% | 1021.7 hPa | - | - | - | - |
| 1777409670 | 13.33° C | 58% | 1021.6 hPa | - | - | - | - |
| 1777407867 | 13.89° C | 53% | 1021.2 hPa | - | - | - | - |
| 1777406067 | 14.44° C | 47% | 1020.9 hPa | - | - | - | - |
| 1777404273 | 14.44° C | 46% | 1020.7 hPa | - | - | - | - |
| 1777400672 | 15° C | 45% | 1020.2 hPa | - | - | - | - |
| 1777398872 | 15.56° C | 44% | 1019.8 hPa | - | - | - | - |
| 1777397072 | 15.56° C | 43% | 1019.7 hPa | - | - | - | - |
* Rain since midnight (hover to see other rain measurements)
** Current wind speed in m/s (hover to see current wind gust speed)